Time;durP1;ratioP1;P1;durP2;ratioP2;P2;SDS_P1;SDS_P2;PMS_P1;PMS_P2;Temp;Humidity;BMP_temperature;BMP_pressure;BME280_temperature;BME280_humidity;BME280_pressure;Samples;Min_cycle;Max_cycle;Signal;HPM_P1;HPM_P2
2023/01/26 00:01:28;;;;;;;19.50;7.57;;;2.30;99.90;;;;;;4978208;28;20450;-75
2023/01/26 00:03:56;;;;;;;0.50;0.10;;;2.30;99.90;;;;;;4978066;28;20450;-74
2023/01/26 00:06:25;;;;;;;0.50;0.10;;;2.30;99.90;;;;;;4970856;28;20448;-75
2023/01/26 00:08:54;;;;;;;0.50;0.20;;;2.30;99.90;;;;;;4967096;28;20517;-73
2023/01/26 00:11:26;;;;;;;3.33;0.70;;;2.30;99.90;;;;;;4978057;28;20959;-74
2023/01/26 00:13:55;;;;;;;0.50;0.10;;;2.30;99.90;;;;;;4981441;28;20442;-74
2023/01/26 00:16:23;;;;;;;1.90;1.70;;;2.20;99.90;;;;;;4979055;28;20494;-74
2023/01/26 00:18:51;;;;;;;0.50;0.10;;;2.20;99.90;;;;;;4981995;28;20711;-75
2023/01/26 00:21:20;;;;;;;0.50;0.10;;;2.20;99.90;;;;;;4977886;28;20979;-74
2023/01/26 00:23:49;;;;;;;0.50;0.10;;;2.20;99.90;;;;;;4986686;28;20446;-75
2023/01/26 00:26:18;;;;;;;0.50;0.10;;;2.20;99.90;;;;;;4965006;29;20448;-75
2023/01/26 00:28:47;;;;;;;0.60;0.20;;;2.20;99.90;;;;;;4961935;29;20475;-74
2023/01/26 00:31:18;;;;;;;1.43;0.93;;;2.20;99.90;;;;;;4960460;29;20803;-75
2023/01/26 00:33:46;;;;;;;2.30;2.20;;;2.20;99.90;;;;;;4960343;28;20478;-75
2023/01/26 00:36:14;;;;;;;0.50;0.10;;;2.10;99.90;;;;;;4986845;28;21000;-76
2023/01/26 00:38:42;;;;;;;0.50;0.10;;;2.20;99.90;;;;;;4984816;28;20477;-74
2023/01/26 00:42:05;;;;;;;0.50;0.10;;;2.10;99.90;;;;;;4984303;28;20522;-75
2023/01/26 00:44:00;;;;;;;0.50;0.10;;;2.20;99.90;;;;;;4976223;28;20455;-75
2023/01/26 00:46:28;;;;;;;0.50;0.10;;;2.10;99.90;;;;;;4963841;29;20462;-74
2023/01/26 00:48:56;;;;;;;0.83;0.83;;;2.10;99.90;;;;;;4962371;29;20467;-75
2023/01/26 00:51:24;;;;;;;0.50;0.10;;;2.20;99.90;;;;;;4964835;28;20477;-74
2023/01/26 00:53:51;;;;;;;0.50;0.10;;;2.10;99.90;;;;;;4969146;28;20453;-76
2023/01/26 00:56:19;;;;;;;0.50;0.10;;;2.10;99.90;;;;;;4959869;29;20906;-73
2023/01/26 00:58:47;;;;;;;0.50;0.10;;;2.10;99.90;;;;;;4959941;28;20475;-74
2023/01/26 05:01:27;;;;;;;0.50;0.10;;;1.50;99.90;;;;;;5567716;23;20498;-71
2023/01/26 05:03:55;;;;;;;0.50;0.10;;;1.40;99.90;;;;;;4964493;28;20798;-71
2023/01/26 05:06:23;;;;;;;0.50;0.10;;;1.40;99.90;;;;;;4971522;28;20478;-71
2023/01/26 05:08:51;;;;;;;0.60;0.40;;;1.40;99.90;;;;;;4975461;28;20437;-71
2023/01/26 05:11:19;;;;;;;0.50;0.10;;;1.40;99.90;;;;;;4956188;29;20496;-72
2023/01/26 05:13:47;;;;;;;0.50;0.10;;;;;;;;;;4958515;23;20467;-68
2023/01/26 05:16:16;;;;;;;0.50;0.10;;;1.40;99.90;;;;;;4937224;29;20484;-66
2023/01/26 05:18:45;;;;;;;0.73;0.73;;;1.40;99.90;;;;;;4929665;29;20448;-65
2023/01/26 05:21:13;;;;;;;0.50;0.20;;;1.40;99.90;;;;;;4929563;29;20875;-66
2023/01/26 05:23:40;;;;;;;0.50;0.30;;;1.40;99.90;;;;;;4936534;29;20451;-66
2023/01/26 05:26:09;;;;;;;0.50;0.10;;;1.40;99.90;;;;;;4928799;29;20943;-66
2023/01/26 05:28:37;;;;;;;0.50;0.10;;;;;;;;;;4920255;29;20497;-67
2023/01/26 05:31:05;;;;;;;0.53;0.27;;;1.40;99.90;;;;;;4936653;29;20967;-66
2023/01/26 05:33:32;;;;;;;0.50;0.10;;;1.40;99.90;;;;;;4932801;29;20823;-67
2023/01/26 05:36:05;;;;;;;0.50;0.20;;;1.40;99.90;;;;;;4936970;29;20489;-67
2023/01/26 05:38:33;;;;;;;0.50;0.10;;;1.40;99.90;;;;;;4937206;29;20457;-67
2023/01/26 05:41:01;;;;;;;3.00;1.50;;;1.40;99.90;;;;;;4936793;29;20456;-67
2023/01/26 05:43:29;;;;;;;0.70;0.67;;;1.30;99.90;;;;;;4936711;29;20507;-67
2023/01/26 05:45:57;;;;;;;0.60;0.20;;;1.30;99.90;;;;;;4935621;29;20515;-67
2023/01/26 05:48:25;;;;;;;0.50;0.10;;;1.30;99.90;;;;;;4936685;29;20559;-67
2023/01/26 05:50:56;;;;;;;0.63;0.63;;;1.20;99.90;;;;;;4934437;29;20497;-67
2023/01/26 05:53:25;;;;;;;0.50;0.20;;;1.20;99.90;;;;;;4930925;29;20838;-67
2023/01/26 05:55:53;;;;;;;0.60;0.53;;;1.20;99.90;;;;;;4929895;29;21380;-66
2023/01/26 05:58:20;;;;;;;0.60;0.20;;;1.20;99.90;;;;;;4933182;29;20451;-66
2023/01/26 06:00:48;;;;;;;0.50;0.10;;;1.20;99.90;;;;;;4933451;29;20461;-67
2023/01/26 06:03:16;;;;;;;0.50;0.10;;;1.20;99.90;;;;;;4933479;29;20955;-67
2023/01/26 06:05:44;;;;;;;0.50;0.10;;;1.20;99.90;;;;;;4925655;29;20476;-67
2023/01/26 06:08:11;;;;;;;0.50;0.10;;;1.20;99.90;;;;;;4926771;29;20797;-67
2023/01/26 06:10:41;;;;;;;0.50;0.10;;;1.20;99.90;;;;;;4927059;29;20448;-67
2023/01/26 06:13:08;;;;;;;0.50;0.20;;;1.20;99.90;;;;;;4918829;29;20505;-67
2023/01/26 06:15:36;;;;;;;1.63;1.53;;;1.20;99.90;;;;;;4928102;29;20484;-68
2023/01/26 06:18:04;;;;;;;0.50;0.30;;;1.10;99.90;;;;;;4927221;29;20476;-67
2023/01/26 06:20:32;;;;;;;1.27;0.43;;;1.10;99.90;;;;;;4940032;29;20498;-68
2023/01/26 06:23:00;;;;;;;2.97;0.50;;;1.10;99.90;;;;;;4944653;29;20499;-66
2023/01/26 06:25:28;;;;;;;0.50;0.10;;;1.10;99.90;;;;;;4935829;29;20937;-67
2023/01/26 06:27:58;;;;;;;0.80;0.60;;;1.10;99.90;;;;;;4935955;29;20798;-68
2023/01/26 06:30:26;;;;;;;0.50;0.13;;;1.10;99.90;;;;;;4935872;29;20503;-68
2023/01/26 06:32:54;;;;;;;0.57;0.40;;;1.10;99.90;;;;;;4935700;29;20500;-68
2023/01/26 06:35:22;;;;;;;0.80;0.80;;;1.10;99.90;;;;;;4935346;29;20476;-66
2023/01/26 06:37:50;;;;;;;1.60;0.60;;;1.10;99.90;;;;;;4934318;29;21017;-67
2023/01/26 06:40:18;;;;;;;1.00;0.70;;;1.00;99.90;;;;;;4931371;29;20452;-66
2023/01/26 06:42:50;;;;;;;1.27;0.50;;;;;;;;;;4933865;29;20949;-68
2023/01/26 06:45:19;;;;;;;0.70;0.60;;;0.90;99.90;;;;;;4917365;29;20479;-67
2023/01/26 06:47:48;;;;;;;0.73;0.73;;;0.90;99.90;;;;;;4924306;29;20547;-68
2023/01/26 06:50:19;;;;;;;0.50;0.10;;;0.90;99.90;;;;;;4929249;29;20453;-67
2023/01/26 06:52:50;;;;;;;0.50;0.10;;;0.90;99.90;;;;;;4921632;29;20491;-67
2023/01/26 06:55:22;;;;;;;0.50;0.10;;;1.00;99.90;;;;;;4924372;29;20558;-68
2023/01/26 06:57:50;;;;;;;2.40;1.90;;;1.00;99.90;;;;;;4935043;29;20555;-67
2023/01/26 07:00:20;;;;;;;0.70;0.70;;;1.10;99.90;;;;;;4932947;29;20514;-67
2023/01/26 07:02:48;;;;;;;1.60;1.50;;;1.00;99.90;;;;;;4927388;29;20817;-68
2023/01/26 07:05:16;;;;;;;0.50;0.10;;;1.00;99.90;;;;;;4934205;29;20458;-67
2023/01/26 07:07:43;;;;;;;0.50;0.10;;;0.90;99.90;;;;;;4926455;29;20450;-67
2023/01/26 07:10:12;;;;;;;0.50;0.10;;;0.90;99.90;;;;;;4927227;29;20876;-68
2023/01/26 07:12:41;;;;;;;0.60;0.50;;;0.90;99.90;;;;;;4934289;29;20452;-68
2023/01/26 07:15:11;;;;;;;0.50;0.27;;;0.80;99.90;;;;;;4932897;29;20477;-67
2023/01/26 07:17:40;;;;;;;1.60;0.83;;;0.60;99.90;;;;;;4931503;29;20479;-68
2023/01/26 07:20:09;;;;;;;1.53;0.83;;;0.60;99.90;;;;;;4934183;29;20895;-68
2023/01/26 07:22:38;;;;;;;0.60;0.23;;;0.60;99.90;;;;;;4935121;29;20467;-67
2023/01/26 07:25:06;;;;;;;0.50;0.20;;;0.60;99.90;;;;;;4935084;29;20471;-67
2023/01/26 07:27:34;;;;;;;1.00;0.77;;;0.60;99.90;;;;;;4934517;29;20475;-67
2023/01/26 07:30:02;;;;;;;0.93;0.60;;;0.70;99.90;;;;;;4933971;29;20475;-66
2023/01/26 07:32:29;;;;;;;0.50;0.10;;;0.70;99.90;;;;;;4935042;29;20456;-67
2023/01/26 07:34:59;;;;;;;0.50;0.10;;;0.80;99.90;;;;;;4935358;29;20475;-67
2023/01/26 07:37:27;;;;;;;0.93;0.93;;;0.70;99.90;;;;;;4935153;29;20479;-66
2023/01/26 07:39:55;;;;;;;0.50;0.10;;;0.70;99.90;;;;;;4935064;29;20451;-67
2023/01/26 07:42:23;;;;;;;0.50;0.10;;;0.70;99.90;;;;;;4934766;29;20445;-67
2023/01/26 07:44:51;;;;;;;0.83;0.83;;;0.70;99.90;;;;;;4935494;29;20471;-67
2023/01/26 07:47:19;;;;;;;0.50;0.20;;;0.70;99.90;;;;;;4934535;29;20458;-66
2023/01/26 07:49:47;;;;;;;0.50;0.10;;;0.80;99.90;;;;;;4934713;29;20482;-66
2023/01/26 07:52:16;;;;;;;0.50;0.10;;;0.70;99.90;;;;;;4934534;29;20460;-68
2023/01/26 07:54:44;;;;;;;0.50;0.10;;;0.70;99.90;;;;;;4934613;29;20476;-66
2023/01/26 07:57:12;;;;;;;0.50;0.10;;;0.80;99.90;;;;;;4934246;29;20494;-68
2023/01/26 07:59:40;;;;;;;0.50;0.20;;;0.80;99.90;;;;;;4934656;29;20463;-66
2023/01/26 08:02:09;;;;;;;0.50;0.20;;;0.80;99.90;;;;;;4934196;29;20519;-67
2023/01/26 08:04:37;;;;;;;0.50;0.10;;;0.80;99.10;;;;;;4934619;29;20520;-66
2023/01/26 08:07:05;;;;;;;0.50;0.10;;;0.80;96.60;;;;;;4929969;29;20463;-67
2023/01/26 08:09:34;;;;;;;1.73;0.93;;;0.90;95.20;;;;;;4937160;29;20448;-66
2023/01/26 08:12:02;;;;;;;1.00;0.67;;;0.90;94.20;;;;;;4937842;29;21178;-67
2023/01/26 08:14:30;;;;;;;0.50;0.10;;;0.90;92.70;;;;;;4938048;29;20480;-67
2023/01/26 08:17:12;;;;;;;0.50;0.10;;;0.90;96.20;;;;;;4938325;29;20532;-68
2023/01/26 08:19:40;;;;;;;0.50;0.10;;;0.80;93.00;;;;;;4937845;29;20471;-67
2023/01/26 08:22:08;;;;;;;0.83;0.83;;;0.80;93.40;;;;;;4938101;29;20968;-67
2023/01/26 08:24:37;;;;;;;0.60;0.40;;;0.90;92.00;;;;;;4939532;29;20479;-67
2023/01/26 08:27:05;;;;;;;1.10;0.30;;;0.80;91.50;;;;;;4940321;29;20993;-67
2023/01/26 08:29:33;;;;;;;0.50;0.10;;;0.80;92.10;;;;;;4937533;29;20455;-69
2023/01/26 08:32:01;;;;;;;0.50;0.10;;;0.80;91.90;;;;;;4938908;29;20455;-69
2023/01/26 08:34:29;;;;;;;0.50;0.10;;;0.80;91.00;;;;;;4938509;29;21034;-66
2023/01/26 08:36:58;;;;;;;0.80;0.67;;;0.80;94.30;;;;;;4937446;29;20448;-67
2023/01/26 08:39:25;;;;;;;0.50;0.10;;;0.80;87.30;;;;;;4938151;29;20471;-67
2023/01/26 08:41:55;;;;;;;0.50;0.10;;;0.80;92.20;;;;;;4937567;29;20444;-68
2023/01/26 08:44:23;;;;;;;0.50;0.10;;;0.90;87.00;;;;;;4937632;29;20468;-68
2023/01/26 08:46:50;;;;;;;0.50;0.20;;;0.90;92.20;;;;;;4937844;29;20458;-68
2023/01/26 08:49:18;;;;;;;0.50;0.10;;;1.00;86.90;;;;;;4937676;29;20569;-68
2023/01/26 08:51:46;;;;;;;1.33;0.93;;;0.90;92.30;;;;;;4937437;29;20452;-69
2023/01/26 08:54:14;;;;;;;0.50;0.10;;;0.90;85.00;;;;;;4937497;29;20529;-68
2023/01/26 08:56:41;;;;;;;0.60;0.33;;;0.90;91.20;;;;;;4937772;29;20459;-67
2023/01/26 08:59:11;;;;;;;0.50;0.30;;;1.00;82.90;;;;;;4937741;29;20494;-67
2023/01/26 09:01:39;;;;;;;0.50;0.10;;;1.00;79.50;;;;;;4937486;29;20973;-69
2023/01/26 09:04:06;;;;;;;0.50;0.10;;;1.00;75.30;;;;;;4937299;29;20484;-67
2023/01/26 09:06:34;;;;;;;0.50;0.10;;;1.00;75.30;;;;;;4937371;29;20444;-68
2023/01/26 09:09:02;;;;;;;0.70;0.50;;;1.00;76.10;;;;;;4927813;29;20446;-67
2023/01/26 09:11:30;;;;;;;0.50;0.30;;;4.10;79.20;;;;;;4918075;29;20461;-67
2023/01/26 09:13:58;;;;;;;0.50;0.20;;;0.90;80.00;;;;;;4922565;29;20511;-68
2023/01/26 09:16:27;;;;;;;1.03;1.03;;;0.90;81.40;;;;;;4933526;29;20444;-68
2023/01/26 09:18:55;;;;;;;0.60;0.50;;;0.90;82.10;;;;;;4937111;29;20526;-68
2023/01/26 09:21:23;;;;;;;0.70;0.57;;;0.90;90.50;;;;;;4937106;29;20452;-68
2023/01/26 09:23:51;;;;;;;0.50;0.17;;;1.00;85.10;;;;;;4936917;29;20449;-67
2023/01/26 09:26:19;;;;;;;1.23;0.70;;;1.00;91.70;;;;;;4936835;29;20448;-67
2023/01/26 09:28:50;;;;;;;0.50;0.10;;;1.10;84.70;;;;;;4937167;29;20444;-67
2023/01/26 09:31:18;;;;;;;0.50;0.20;;;1.10;84.30;;;;;;4937264;29;20450;-67
2023/01/26 09:33:48;;;;;;;0.50;0.10;;;1.00;83.50;;;;;;4937203;29;20504;-67
2023/01/26 09:36:16;;;;;;;0.50;0.10;;;1.10;83.30;;;;;;4937070;29;20507;-66
2023/01/26 09:38:44;;;;;;;0.70;0.50;;;1.10;83.70;;;;;;4937321;29;20479;-68
2023/01/26 09:41:23;;;;;;;0.90;0.50;;;1.10;90.60;;;;;;4937338;29;20440;-68
2023/01/26 09:43:53;;;;;;;0.50;0.10;;;1.00;81.60;;;;;;4937568;29;20448;-67
2023/01/26 09:46:24;;;;;;;0.90;0.50;;;1.10;82.50;;;;;;4937061;29;20455;-66
2023/01/26 09:49:04;;;;;;;0.77;0.47;;;1.10;82.50;;;;;;4937400;29;20452;-67
2023/01/26 09:51:35;;;;;;;0.50;0.10;;;1.00;78.60;;;;;;4937036;29;20462;-68
2023/01/26 09:54:12;;;;;;;0.60;0.37;;;0.90;76.20;;;;;;4936785;29;20468;-67
2023/01/26 09:56:40;;;;;;;0.50;0.10;;;0.90;78.30;;;;;;4936721;29;20449;-66
2023/01/26 09:59:20;;;;;;;6.70;6.40;;;0.90;86.20;;;;;;4937107;29;20480;-67
2023/01/26 10:01:56;;;;;;;0.70;0.43;;;0.90;77.70;;;;;;4936273;29;20448;-67
2023/01/26 10:04:35;;;;;;;0.50;0.20;;;0.90;76.90;;;;;;4940898;29;20467;-67
2023/01/26 10:07:08;;;;;;;1.17;1.07;;;0.80;85.20;;;;;;4943092;29;20447;-68
2023/01/26 10:09:38;;;;;;;0.50;0.10;;;0.80;80.60;;;;;;4926063;29;20445;-67
2023/01/26 10:12:08;;;;;;;0.80;0.40;;;0.80;80.40;;;;;;4917568;29;20510;-69
2023/01/26 10:14:41;;;;;;;0.50;0.20;;;0.80;79.60;;;;;;4917215;29;20472;-67
2023/01/26 10:17:15;;;;;;;0.50;0.20;;;0.80;77.10;;;;;;4917643;29;20807;-67
2023/01/26 10:19:50;;;;;;;0.50;0.20;;;0.80;76.90;;;;;;4916727;29;20484;-66
2023/01/26 10:22:24;;;;;;;3.60;0.57;;;0.80;77.70;;;;;;4916975;29;20448;-67
2023/01/26 10:24:55;;;;;;;0.50;0.10;;;0.90;78.70;;;;;;4916887;29;20472;-66
2023/01/26 10:27:23;;;;;;;0.50;0.10;;;0.90;86.50;;;;;;4917103;29;20441;-66
2023/01/26 10:29:51;;;;;;;0.50;0.10;;;0.90;87.70;;;;;;4923679;29;20465;-67
2023/01/26 10:32:19;;;;;;;0.60;0.30;;;0.90;87.30;;;;;;4921462;29;20997;-67
2023/01/26 10:34:49;;;;;;;0.50;0.10;;;0.90;77.20;;;;;;4935966;29;20526;-68
2023/01/26 10:37:21;;;;;;;0.50;0.10;;;0.90;85.70;;;;;;4936173;29;20550;-66
2023/01/26 10:40:00;;;;;;;0.50;0.10;;;1.00;86.00;;;;;;4934822;29;20570;-68
2023/01/26 10:42:31;;;;;;;0.50;0.10;;;1.10;76.50;;;;;;4936285;29;20458;-67
2023/01/26 10:45:00;;;;;;;0.50;0.10;;;1.10;75.80;;;;;;4935718;29;20546;-67
2023/01/26 10:47:28;;;;;;;0.50;0.10;;;1.10;73.90;;;;;;4935667;29;20440;-67
2023/01/26 10:50:20;;;;;;;0.50;0.10;;;1.10;73.00;;;;;;4935686;29;20566;-66
2023/01/26 10:52:59;;;;;;;0.50;0.10;;;1.10;80.90;;;;;;4937631;29;20643;-67
2023/01/26 10:55:27;;;;;;;2.93;2.83;;;;;;;;;;4937239;29;20517;-68
2023/01/26 10:57:55;;;;;;;0.50;0.10;;;1.20;73.10;;;;;;4937334;29;20444;-68
2023/01/26 11:00:27;;;;;;;0.50;0.10;;;1.30;77.40;;;;;;4936471;29;20489;-67
2023/01/26 11:03:04;;;;;;;0.50;0.10;;;1.20;85.40;;;;;;4936928;29;20456;-67
2023/01/26 11:05:34;;;;;;;0.50;0.10;;;1.20;75.60;;;;;;4936417;29;20557;-66
2023/01/26 11:08:05;;;;;;;0.50;0.30;;;1.20;83.50;;;;;;4934350;29;20818;-66
2023/01/26 11:10:35;;;;;;;0.50;0.20;;;1.20;72.00;;;;;;4916486;29;20445;-67
2023/01/26 11:13:16;;;;;;;0.50;0.27;;;1.10;71.60;;;;;;4916593;29;20948;-67
2023/01/26 11:15:46;;;;;;;0.50;0.10;;;1.10;71.40;;;;;;4916600;29;20481;-67
2023/01/26 11:18:28;;;;;;;0.73;0.73;;;1.10;70.60;;;;;;4916645;29;20544;-67
2023/01/26 11:21:06;;;;;;;0.50;0.20;;;1.10;69.10;;;;;;4916357;29;20545;-68
2023/01/26 11:23:58;;;;;;;0.50;0.10;;;1.10;67.50;;;;;;4916252;29;20947;-67
2023/01/26 11:26:51;;;;;;;0.50;0.10;;;1.10;75.50;;;;;;4916335;29;20445;-69
2023/01/26 11:29:40;;;;;;;0.50;0.10;;;1.10;75.60;;;;;;4916370;29;20441;-68
2023/01/26 11:32:16;;;;;;;0.50;0.10;;;1.10;76.10;;;;;;4916308;29;20485;-68
2023/01/26 11:34:57;;;;;;;0.50;0.10;;;1.10;66.40;;;;;;4916245;29;20480;-67
2023/01/26 11:37:42;;;;;;;2.73;2.40;;;1.20;74.60;;;;;;4916233;29;20445;-67
2023/01/26 11:40:22;;;;;;;0.50;0.10;;;1.10;70.20;;;;;;4916014;29;20480;-68
2023/01/26 11:42:59;;;;;;;2.20;2.00;;;1.20;67.40;;;;;;4917331;29;20486;-69
2023/01/26 11:45:36;;;;;;;0.50;0.13;;;1.20;56.00;;;;;;4920323;29;20464;-68
2023/01/26 11:48:19;;;;;;;2.57;2.37;;;1.30;53.50;;;;;;4920352;29;20448;-68
2023/01/26 11:50:55;;;;;;;0.50;0.10;;;1.30;58.30;;;;;;4920201;29;20473;-66
2023/01/26 11:53:54;;;;;;;0.50;0.10;;;1.20;52.40;;;;;;4920317;29;20865;-68
2023/01/26 11:56:35;;;;;;;0.50;0.10;;;1.20;45.50;;;;;;4920047;29;20452;-68
2023/01/26 11:59:10;;;;;;;0.50;0.10;;;1.40;47.30;;;;;;4919542;29;20488;-67
2023/01/26 12:01:41;;;;;;;0.50;0.10;;;1.40;55.00;;;;;;4920052;29;20451;-67
2023/01/26 12:04:16;;;;;;;0.50;0.10;;;1.40;46.80;;;;;;4919868;29;20967;-68
2023/01/26 12:06:47;;;;;;;0.50;0.10;;;1.50;46.40;;;;;;4920348;29;20474;-69
2023/01/26 12:09:21;;;;;;;0.50;0.10;;;1.50;54.50;;;;;;4930943;29;20451;-68
2023/01/26 12:11:55;;;;;;;0.50;0.10;;;1.50;53.80;;;;;;4938709;29;20458;-67
2023/01/26 12:14:27;;;;;;;0.50;0.10;;;1.50;44.30;;;;;;4938482;29;20475;-69
2023/01/26 12:17:06;;;;;;;0.50;0.10;;;1.50;51.80;;;;;;4939890;29;20795;-67
2023/01/26 12:19:52;;;;;;;6.53;6.30;;;1.60;52.30;;;;;;4938135;29;20515;-69
2023/01/26 12:22:25;;;;;;;1.17;1.07;;;3.20;53.50;;;;;;4938425;29;20453;-67
2023/01/26 12:24:58;;;;;;;0.50;0.10;;;1.60;41.40;;;;;;4938386;29;20544;-67
2023/01/26 12:27:51;;;;;;;0.60;0.47;;;1.70;48.90;;;;;;4938488;29;20447;-66
2023/01/26 12:30:29;;;;;;;0.50;0.10;;;1.60;47.40;;;;;;4929566;29;20473;-68
2023/01/26 12:32:57;;;;;;;0.50;0.10;;;1.50;40.90;;;;;;4917892;29;20948;-67
2023/01/26 12:35:42;;;;;;;0.50;0.10;;;1.60;41.70;;;;;;4919442;29;20476;-68
2023/01/26 12:38:17;;;;;;;0.50;0.10;;;0.00;48.40;;;;;;4919077;29;20547;-69
2023/01/26 12:41:01;;;;;;;0.50;0.10;;;1.60;43.40;;;;;;4917512;29;20959;-66
2023/01/26 12:43:44;;;;;;;0.50;0.10;;;1.60;50.60;;;;;;4918522;29;20453;-69
2023/01/26 12:46:13;;;;;;;0.70;0.40;;;1.60;42.50;;;;;;4919382;29;20460;-67
2023/01/26 12:48:46;;;;;;;0.50;0.10;;;1.60;50.20;;;;;;4919444;29;20478;-67
2023/01/26 12:51:20;;;;;;;0.50;0.10;;;1.70;50.60;;;;;;4919073;29;20440;-67
2023/01/26 12:53:55;;;;;;;0.50;0.10;;;1.60;43.60;;;;;;4918495;29;20453;-68
2023/01/26 12:56:29;;;;;;;0.50;0.10;;;1.60;43.40;;;;;;4919359;29;20466;-67
2023/01/26 12:59:00;;;;;;;0.50;0.40;;;1.60;50.60;;;;;;4919262;29;20524;-67
2023/01/26 13:01:38;;;;;;;0.50;0.10;;;1.70;42.50;;;;;;4918822;29;20797;-68
2023/01/26 13:04:09;;;;;;;0.50;0.10;;;1.60;41.40;;;;;;4919419;29;20471;-67
2023/01/26 13:06:37;;;;;;;0.50;0.10;;;1.60;50.40;;;;;;4919226;29;20944;-68
2023/01/26 13:09:20;;;;;;;0.50;0.10;;;1.60;55.70;;;;;;4928968;29;20950;-68
2023/01/26 13:11:51;;;;;;;0.60;0.20;;;1.60;47.10;;;;;;4937713;29;20868;-69
2023/01/26 13:14:37;;;;;;;0.50;0.10;;;1.60;48.80;;;;;;4938308;29;20923;-67
2023/01/26 13:17:40;;;;;;;0.50;0.10;;;1.60;56.90;;;;;;4938554;29;20480;-68
2023/01/26 13:20:49;;;;;;;2.40;1.90;;;1.70;60.90;;;;;;4936190;29;21150;-68
2023/01/26 13:23:51;;;;;;;0.50;0.10;;;1.70;53.80;;;;;;4938182;29;20962;-68
2023/01/26 13:26:41;;;;;;;1.47;0.87;;;1.80;61.40;;;;;;4937983;29;20443;-67
2023/01/26 13:29:34;;;;;;;0.50;0.10;;;1.70;67.50;;;;;;4938119;29;20535;-69
2023/01/26 13:32:56;;;;;;;7.60;2.77;;;1.70;69.20;;;;;;4937537;29;20536;-69
2023/01/26 13:35:26;;;;;;;0.93;0.60;;;1.70;70.80;;;;;;4938054;29;20464;-68
2023/01/26 13:38:01;;;;;;;0.50;0.10;;;1.70;77.10;;;;;;4937887;29;20448;-68
2023/01/26 13:40:33;;;;;;;0.50;0.10;;;1.70;79.10;;;;;;4937769;29;21012;-68
2023/01/26 13:43:08;;;;;;;1.10;0.87;;;1.70;80.50;;;;;;4937625;29;21034;-67
2023/01/26 13:46:01;;;;;;;0.50;0.10;;;1.60;82.80;;;;;;4937946;29;20507;-67
2023/01/26 13:48:45;;;;;;;0.60;0.40;;;1.60;90.50;;;;;;4938096;29;20454;-67
2023/01/26 13:51:19;;;;;;;0.50;0.10;;;1.60;88.30;;;;;;4938279;29;20539;-66
2023/01/26 13:53:53;;;;;;;0.60;0.30;;;1.60;91.40;;;;;;4939995;29;20448;-69
2023/01/26 13:56:24;;;;;;;2.00;0.87;;;1.60;95.10;;;;;;4941082;29;20452;-67
2023/01/26 13:58:53;;;;;;;4.10;1.40;;;1.50;94.30;;;;;;4937968;29;20470;-69
2023/01/26 14:01:22;;;;;;;1.00;0.87;;;1.50;94.60;;;;;;4937469;29;20484;-68
2023/01/26 14:04:03;;;;;;;0.50;0.10;;;1.50;96.00;;;;;;4937646;29;20511;-68
2023/01/26 14:06:31;;;;;;;0.70;0.50;;;1.50;97.30;;;;;;4936698;29;20452;-67
2023/01/26 14:08:59;;;;;;;0.70;0.53;;;1.50;98.20;;;;;;4928270;29;20464;-69
2023/01/26 14:11:32;;;;;;;0.50;0.10;;;1.40;99.90;;;;;;4918058;29;20474;-68
2023/01/26 14:14:02;;;;;;;0.90;0.57;;;1.50;99.90;;;;;;4918826;29;20460;-69
2023/01/26 14:16:33;;;;;;;0.50;0.10;;;1.50;99.90;;;;;;4918201;29;20957;-68
2023/01/26 14:19:06;;;;;;;1.17;1.07;;;1.40;99.90;;;;;;4918619;29;20856;-67
2023/01/26 14:21:46;;;;;;;0.50;0.20;;;1.40;99.90;;;;;;4921569;29;20619;-68
2023/01/26 14:24:14;;;;;;;2.30;1.80;;;1.40;99.90;;;;;;4919992;29;20987;-67
2023/01/26 14:26:42;;;;;;;0.60;0.57;;;1.30;99.90;;;;;;4918406;29;20457;-67
2023/01/26 14:29:13;;;;;;;8.53;1.80;;;1.30;99.90;;;;;;4917894;29;20449;-68
2023/01/26 14:31:42;;;;;;;0.50;0.13;;;1.30;99.90;;;;;;4917187;29;20872;-67
2023/01/26 14:34:11;;;;;;;0.50;0.10;;;1.40;99.90;;;;;;4917386;29;20473;-67
2023/01/26 14:36:39;;;;;;;0.50;0.10;;;1.30;99.90;;;;;;4917057;29;20957;-67
2023/01/26 14:39:17;;;;;;;0.73;0.73;;;1.30;99.90;;;;;;4916636;29;20456;-67
2023/01/26 14:41:45;;;;;;;0.70;0.60;;;1.30;99.90;;;;;;4916941;29;20492;-70
2023/01/26 14:44:14;;;;;;;1.43;0.57;;;1.30;99.90;;;;;;4917790;29;20480;-67
2023/01/26 14:46:53;;;;;;;0.50;0.10;;;1.30;99.90;;;;;;4920260;29;20456;-66
2023/01/26 14:49:28;;;;;;;0.50;0.20;;;1.30;99.90;;;;;;4917414;29;20456;-67
2023/01/26 14:52:01;;;;;;;1.03;0.93;;;1.30;99.90;;;;;;4916674;29;20831;-68
2023/01/26 14:54:32;;;;;;;0.50;0.30;;;1.30;99.90;;;;;;4916852;29;20473;-68
2023/01/26 14:57:00;;;;;;;0.50;0.10;;;1.40;99.90;;;;;;4916833;29;20513;-68
2023/01/26 14:59:35;;;;;;;0.50;0.10;;;1.40;99.90;;;;;;4916493;29;20821;-69
2023/01/26 15:02:17;;;;;;;0.50;0.10;;;;;;;;;;4916633;29;20489;-68
2023/01/26 15:04:49;;;;;;;0.70;0.47;;;1.50;99.90;;;;;;4916812;29;20472;-68
2023/01/26 15:07:38;;;;;;;0.50;0.17;;;1.50;99.90;;;;;;4917641;29;20473;-69
2023/01/26 15:10:30;;;;;;;0.50;0.10;;;1.50;99.90;;;;;;4935594;29;20448;-67
2023/01/26 15:13:00;;;;;;;0.50;0.10;;;1.50;99.90;;;;;;4937537;29;20491;-68
2023/01/26 15:15:30;;;;;;;0.50;0.10;;;1.50;99.90;;;;;;4936946;29;20475;-67
2023/01/26 15:18:05;;;;;;;0.50;0.10;;;1.50;99.90;;;;;;4936819;28;20460;-67
2023/01/26 15:20:43;;;;;;;0.90;0.77;;;1.50;99.90;;;;;;4936250;29;20451;-68
2023/01/26 15:23:24;;;;;;;0.50;0.10;;;1.50;99.90;;;;;;4935533;29;20491;-66
2023/01/26 15:25:52;;;;;;;0.50;0.10;;;1.50;99.90;;;;;;4935684;29;20469;-68
2023/01/26 15:28:24;;;;;;;0.50;0.10;;;1.50;99.90;;;;;;4935535;29;20451;-67
2023/01/26 15:30:55;;;;;;;1.90;0.83;;;1.50;99.90;;;;;;4935284;29;20577;-68
2023/01/26 15:33:49;;;;;;;0.50;0.10;;;1.50;99.90;;;;;;4935377;29;20435;-69
2023/01/26 15:36:29;;;;;;;0.50;0.10;;;1.50;99.90;;;;;;4936387;29;20452;-69
2023/01/26 15:39:10;;;;;;;1.73;1.63;;;1.50;99.90;;;;;;4937678;29;20476;-68
2023/01/26 15:41:39;;;;;;;0.50;0.10;;;1.50;99.90;;;;;;4936116;29;20529;-66
2023/01/26 15:44:14;;;;;;;0.50;0.10;;;1.50;99.90;;;;;;4936970;29;20979;-70
2023/01/26 15:46:42;;;;;;;0.50;0.10;;;1.50;99.90;;;;;;4938045;29;20454;-69
2023/01/26 15:49:12;;;;;;;0.50;0.10;;;1.50;99.90;;;;;;4936502;29;20451;-70
2023/01/26 15:51:40;;;;;;;3.90;3.70;;;1.50;99.90;;;;;;4935398;29;20455;-67
2023/01/26 15:54:10;;;;;;;0.50;0.10;;;1.50;99.90;;;;;;4935930;29;20468;-69
2023/01/26 15:56:38;;;;;;;4.40;2.20;;;1.50;99.90;;;;;;4936458;29;20450;-68
2023/01/26 15:59:07;;;;;;;0.50;0.20;;;;;;;;;;4937026;29;20951;-68
2023/01/26 16:01:34;;;;;;;0.50;0.10;;;1.60;99.90;;;;;;4936871;29;20511;-68
2023/01/26 16:04:02;;;;;;;0.50;0.10;;;1.70;99.90;;;;;;4936609;29;20480;-68
2023/01/26 16:06:33;;;;;;;0.50;0.10;;;1.70;99.90;;;;;;4936822;29;20448;-68
2023/01/26 16:09:00;;;;;;;0.50;0.10;;;1.70;99.90;;;;;;4926977;29;20566;-70
2023/01/26 16:11:31;;;;;;;0.50;0.20;;;1.70;99.90;;;;;;4917686;29;20473;-69
2023/01/26 16:14:01;;;;;;;1.13;1.07;;;1.70;99.90;;;;;;4916954;29;20461;-68
2023/01/26 16:16:32;;;;;;;0.50;0.10;;;1.70;99.90;;;;;;4916605;29;20581;-67
2023/01/26 16:19:00;;;;;;;0.50;0.10;;;1.70;99.90;;;;;;4916918;29;20457;-67
2023/01/26 16:21:33;;;;;;;0.50;0.17;;;1.70;99.90;;;;;;4916498;29;20484;-69
2023/01/26 16:24:02;;;;;;;0.50;0.10;;;1.70;99.90;;;;;;4917060;29;20923;-69
2023/01/26 16:26:31;;;;;;;0.50;0.10;;;1.70;99.90;;;;;;4918394;29;20453;-67
2023/01/26 16:28:58;;;;;;;0.50;0.10;;;1.70;99.90;;;;;;4918022;29;20456;-68
2023/01/26 16:31:29;;;;;;;0.50;0.10;;;1.70;99.90;;;;;;4919175;29;20876;-67
2023/01/26 16:33:58;;;;;;;0.50;0.10;;;1.70;99.90;;;;;;4919066;29;20460;-69
2023/01/26 16:36:26;;;;;;;0.50;0.10;;;1.70;99.90;;;;;;4919324;29;20460;-68
2023/01/26 16:38:55;;;;;;;0.50;0.10;;;1.80;99.90;;;;;;4918904;29;20449;-68
2023/01/26 16:41:25;;;;;;;0.50;0.10;;;1.80;99.90;;;;;;4936177;29;20448;-67
2023/01/26 16:43:54;;;;;;;0.50;0.10;;;1.80;99.90;;;;;;4928083;29;20449;-67
2023/01/26 16:46:22;;;;;;;0.50;0.10;;;1.80;99.90;;;;;;4924621;29;20448;-68
2023/01/26 16:48:51;;;;;;;0.50;0.10;;;1.80;99.90;;;;;;4934381;29;20468;-69
2023/01/26 16:51:22;;;;;;;0.50;0.10;;;1.80;99.90;;;;;;4932792;29;20448;-68
2023/01/26 16:53:50;;;;;;;0.60;0.57;;;;;;;;;;4938629;29;20820;-68
2023/01/26 16:56:20;;;;;;;0.50;0.10;;;1.80;99.90;;;;;;4938504;29;20512;-68
2023/01/26 16:58:48;;;;;;;0.50;0.10;;;1.80;99.90;;;;;;4936210;29;20951;-68
2023/01/26 17:01:19;;;;;;;0.50;0.10;;;1.80;99.90;;;;;;4930433;29;20510;-69
2023/01/26 17:03:47;;;;;;;0.50;0.10;;;1.90;99.90;;;;;;4933514;29;20523;-67
2023/01/26 17:06:18;;;;;;;0.50;0.10;;;1.90;99.90;;;;;;4926515;29;20509;-66
2023/01/26 17:08:46;;;;;;;0.50;0.10;;;2.00;99.90;;;;;;4928382;29;20544;-68
2023/01/26 17:11:20;;;;;;;0.50;0.10;;;2.00;99.90;;;;;;4937511;29;20515;-69
2023/01/26 17:13:48;;;;;;;0.50;0.10;;;2.00;99.90;;;;;;4920681;29;20516;-67
2023/01/26 17:16:18;;;;;;;0.50;0.10;;;2.10;99.90;;;;;;4991171;23;20505;-72
2023/01/26 17:18:47;;;;;;;0.50;0.10;;;2.10;99.90;;;;;;4972382;28;20558;-72
2023/01/26 17:21:17;;;;;;;0.50;0.10;;;2.00;99.90;;;;;;4978798;28;20450;-72
2023/01/26 17:23:47;;;;;;;1.60;1.50;;;2.00;99.90;;;;;;4976191;28;20479;-73
2023/01/26 17:26:17;;;;;;;3.03;2.83;;;2.00;99.90;;;;;;4964037;28;20477;-73